Terminal Aerodrome Forecast
Issued by NWS Charleston, WV

Current Version | Previous Version | Text Only | Print | Product List | Glossary Off
Versions: 1 2 3 4 5 6 7 8 9 10 11 12 13 14 15 16 17 18 19 20 21

000
FTUS41 KRLX 261700 RRA
TAFBKW
TAF
KBKW 261743Z 2618/2718 15005KT P6SM BKN250
     FM262300 VRB03KT P6SM FEW250
     FM271600 34005KT P6SM FEW050=

USA.gov is the U.S. government's official web portal to all federal, state and local government web resources and services.